createdAt,value
2023-06-18T05:27:38.740Z,96685.03
2023-06-18T05:29:41.581Z,96689.91
2023-06-18T05:31:44.396Z,96699.38
2023-06-18T05:33:47.178Z,96700.19
2023-06-18T05:35:51.125Z,96706.94
2023-06-18T05:37:54.158Z,96704.56
2023-06-18T05:39:57.039Z,96712.75
2023-06-18T05:41:59.823Z,96718.19
2023-06-18T05:44:04.025Z,96722.31
2023-06-18T05:46:06.882Z,96725.91
2023-06-18T05:48:11.090Z,96727.63
2023-06-18T05:50:14.058Z,96724.47
2023-06-18T05:52:16.881Z,96728.94
2023-06-18T05:54:19.708Z,96735.00
2023-06-18T05:56:22.479Z,96740.25
2023-06-18T05:58:25.690Z,96740.69
2023-06-18T06:00:30.059Z,96739.53
2023-06-18T06:02:33.215Z,96740.53
2023-06-18T06:04:36.012Z,96746.16
2023-06-18T06:06:39.120Z,96746.41
2023-06-18T06:08:41.873Z,96736.84
2023-06-18T06:10:45.634Z,96736.56
2023-06-18T06:12:48.502Z,96737.06
2023-06-18T06:14:51.523Z,96731.03
2023-06-18T06:16:59.081Z,96726.94
2023-06-18T06:19:01.937Z,96728.25
2023-06-18T06:21:04.843Z,96723.31
2023-06-18T06:23:07.831Z,96716.78
2023-06-18T06:25:11.179Z,96719.19
2023-06-18T06:27:13.923Z,96714.59
2023-06-18T06:29:17.022Z,96717.78
2023-06-18T06:31:19.841Z,96711.28
2023-06-18T06:33:24.130Z,96715.63
2023-06-18T06:35:29.008Z,96714.00
2023-06-18T06:37:33.427Z,96708.06
2023-06-18T06:39:36.508Z,96718.09
2023-06-18T06:41:39.351Z,96716.72
2023-06-18T06:43:42.130Z,96713.69
2023-06-18T06:45:45.027Z,96710.69
2023-06-18T06:47:49.625Z,96717.91
2023-06-18T06:49:53.837Z,96715.69
2023-06-18T06:51:57.325Z,96718.13
2023-06-18T06:54:00.287Z,96716.16
2023-06-18T06:56:03.310Z,96720.97
2023-06-18T06:58:06.147Z,96716.66
2023-06-18T07:00:11.937Z,96715.53
2023-06-18T07:02:15.046Z,96711.44
2023-06-18T07:04:18.038Z,96709.22
2023-06-18T07:06:22.519Z,96706.03
2023-06-18T07:08:25.326Z,96717.94
2023-06-18T07:10:28.174Z,96713.72
2023-06-18T07:12:31.100Z,96715.00
2023-06-18T07:14:33.924Z,96712.91
2023-06-18T07:16:37.000Z,96713.47
2023-06-18T07:18:39.843Z,96706.44
2023-06-18T07:20:42.646Z,96720.59
2023-06-18T07:22:46.789Z,96716.28
2023-06-18T07:24:49.793Z,96712.28
2023-06-18T07:26:52.724Z,96715.16
2023-06-18T07:28:55.616Z,96710.63
2023-06-18T07:30:58.505Z,96704.19
2023-06-18T07:33:01.493Z,96714.44
2023-06-18T07:35:04.693Z,96708.50
2023-06-18T07:37:07.663Z,96694.53
2023-06-18T07:39:12.076Z,96694.44
2023-06-18T07:41:14.800Z,96690.41
2023-06-18T07:43:17.666Z,96696.09
2023-06-18T07:45:20.738Z,96691.22
2023-06-18T07:47:23.569Z,96689.50
2023-06-18T07:49:26.732Z,96692.53
2023-06-18T07:51:29.574Z,96682.28
2023-06-18T07:53:33.392Z,96677.94
2023-06-18T07:55:37.726Z,96668.19
2023-06-18T07:57:40.924Z,96681.75
2023-06-18T07:59:43.833Z,96676.31
2023-06-18T08:01:46.848Z,96678.47
2023-06-18T08:03:49.818Z,96672.25
2023-06-18T08:05:52.752Z,96669.22
2023-06-18T08:07:55.717Z,96666.03
2023-06-18T08:09:58.564Z,96664.38
2023-06-18T08:12:02.891Z,96664.69
2023-06-18T08:14:05.981Z,96658.16
2023-06-18T08:16:08.883Z,96657.34
2023-06-18T08:18:11.790Z,96662.78
2023-06-18T08:20:14.728Z,96660.34
2023-06-18T08:22:18.368Z,96661.13
2023-06-18T08:24:21.184Z,96657.34
2023-06-18T08:26:24.298Z,96658.97
2023-06-18T08:28:28.573Z,96655.97
2023-06-18T08:30:31.375Z,96661.09
2023-06-18T08:32:34.391Z,96651.38
2023-06-18T08:34:43.281Z,96654.06
2023-06-18T08:36:47.730Z,96638.09
2023-06-18T08:38:51.179Z,96645.41
2023-06-18T08:40:55.678Z,96635.09
2023-06-18T08:45:11.453Z,96627.47
2023-06-18T08:47:14.785Z,96634.81
2023-06-18T08:49:19.867Z,96634.50
2023-06-18T08:51:23.802Z,96636.09
2023-06-18T08:53:35.944Z,96635.00
2023-06-18T08:55:41.762Z,96627.66
2023-06-18T08:57:49.765Z,96630.06
2023-06-18T08:59:54.172Z,96625.47
2023-06-18T09:01:58.628Z,96623.25
2023-06-18T09:04:02.195Z,96625.38
2023-06-18T09:06:05.625Z,96625.06
2023-06-18T09:08:08.767Z,96618.06
2023-06-18T09:10:11.921Z,96614.63
2023-06-18T09:12:14.708Z,96616.94
2023-06-18T09:14:17.756Z,96611.50
2023-06-18T09:16:20.869Z,96607.41
2023-06-18T09:18:26.823Z,96610.59
2023-06-18T09:20:30.669Z,96602.97
2023-06-18T09:22:46.677Z,96602.66
2023-06-18T09:24:57.172Z,96600.75
2023-06-18T09:27:02.714Z,96607.78
2023-06-18T09:29:06.648Z,96609.69
2023-06-18T09:31:09.553Z,96616.44
2023-06-18T09:33:13.847Z,96607.22
2023-06-18T09:35:19.458Z,96611.22
2023-06-18T09:37:22.505Z,96607.41
2023-06-18T09:39:26.692Z,96616.34
2023-06-18T09:41:29.878Z,96613.63
2023-06-18T09:43:36.882Z,96622.56
2023-06-18T09:45:39.751Z,96621.47
2023-06-18T09:47:45.782Z,96612.03
2023-06-18T09:49:48.844Z,96615.53
2023-06-18T09:51:53.738Z,96616.66
2023-06-18T09:54:00.989Z,96626.88
2023-06-18T09:56:12.950Z,96615.22
2023-06-18T09:58:15.825Z,96617.63
2023-06-18T10:00:20.790Z,96615.47
2023-06-18T10:02:27.441Z,96618.97
2023-06-18T10:04:30.353Z,96615.97
2023-06-18T10:06:33.941Z,96612.44
2023-06-18T10:08:40.301Z,96617.06
2023-06-18T10:10:43.829Z,96611.63
2023-06-18T10:12:50.633Z,96615.16
2023-06-18T10:14:56.272Z,96603.78
2023-06-18T10:17:04.914Z,96611.09
2023-06-18T10:19:14.159Z,96610.31
2023-06-18T10:21:18.438Z,96602.19
2023-06-18T10:23:22.488Z,96597.56
2023-06-18T10:25:26.905Z,96601.06
2023-06-18T10:27:30.710Z,96588.34
2023-06-18T10:29:34.688Z,96593.47
2023-06-18T10:31:38.537Z,96586.94
2023-06-18T10:33:41.966Z,96573.06
2023-06-18T10:35:45.815Z,96578.50
2023-06-18T10:37:49.304Z,96570.84
2023-06-18T10:39:52.182Z,96581.91
2023-06-18T10:41:57.207Z,96573.75
2023-06-18T10:44:00.033Z,96580.78
2023-06-18T10:46:10.651Z,96572.06
2023-06-18T10:48:17.781Z,96570.84
2023-06-18T10:50:23.760Z,96570.53
2023-06-18T10:52:30.303Z,96569.16
2023-06-18T10:54:35.117Z,96569.66
2023-06-18T10:56:38.718Z,96566.63
2023-06-18T10:58:44.129Z,96561.69
2023-06-18T11:00:47.741Z,96565.22
2023-06-18T11:02:59.359Z,96560.28
2023-06-18T11:05:02.496Z,96560.81
2023-06-18T11:07:14.087Z,96564.00
2023-06-18T11:09:17.019Z,96557.97
2023-06-18T11:11:19.808Z,96558.50
2023-06-18T11:13:34.082Z,96555.97
2023-06-18T11:15:55.468Z,96554.09
2023-06-18T11:18:02.396Z,96549.16
2023-06-18T11:20:06.593Z,96544.53
2023-06-18T11:22:09.630Z,96546.13
2023-06-18T11:24:12.621Z,96552.06
2023-06-18T11:26:16.602Z,96553.97
2023-06-18T11:28:19.913Z,96541.69
2023-06-18T11:30:23.455Z,96547.34
2023-06-18T11:32:28.287Z,96546.72
2023-06-18T11:34:31.538Z,96549.91
2023-06-18T11:36:34.440Z,96554.72
2023-06-18T11:38:37.956Z,96554.13
2023-06-18T11:40:50.101Z,96555.44
2023-06-18T11:42:54.229Z,96549.06
2023-06-18T11:44:58.437Z,96557.69
2023-06-18T11:47:02.618Z,96554.41
2023-06-18T11:49:14.835Z,96553.78
2023-06-18T11:51:17.813Z,96550.75
2023-06-18T11:53:20.841Z,96551.25
2023-06-18T11:55:24.174Z,96544.38
2023-06-18T11:57:27.235Z,96547.63
2023-06-18T11:59:30.429Z,96544.28
2023-06-18T12:01:34.583Z,96543.97
2023-06-18T12:03:37.827Z,96537.13
2023-06-18T12:05:42.266Z,96537.59
2023-06-18T12:07:46.829Z,96535.41
2023-06-18T12:09:50.372Z,96538.63
2023-06-18T12:12:03.757Z,96535.63
2023-06-18T12:14:22.113Z,96534.19
2023-06-18T12:16:30.689Z,96530.66
2023-06-18T12:18:37.496Z,96536.91
2023-06-18T12:20:42.455Z,96534.19
2023-06-18T12:22:45.408Z,96534.19
2023-06-18T12:24:48.461Z,96530.97
2023-06-18T12:26:51.695Z,96541.84
2023-06-18T12:28:55.112Z,96541.84
2023-06-18T12:30:57.871Z,96542.16
2023-06-18T12:33:05.548Z,96534.31
2023-06-18T12:35:12.972Z,96541.34
2023-06-18T12:37:17.247Z,96548.97
2023-06-18T12:39:20.175Z,96538.13
2023-06-18T12:41:24.364Z,96541.13
2023-06-18T12:43:27.453Z,96531.88
2023-06-18T12:45:34.091Z,96540.84
2023-06-18T12:47:42.014Z,96537.84
2023-06-18T12:49:45.799Z,96539.75
2023-06-18T12:51:51.170Z,96548.38
2023-06-18T12:53:55.405Z,96538.63
2023-06-18T12:56:00.061Z,96549.50
2023-06-18T12:58:02.974Z,96548.38
2023-06-18T13:00:17.462Z,96557.81
2023-06-18T13:02:21.241Z,96553.19
2023-06-18T13:04:25.093Z,96555.91
2023-06-18T13:06:30.249Z,96550.78
2023-06-18T13:08:33.325Z,96557.81
2023-06-18T13:10:37.441Z,96559.25
2023-06-18T13:12:41.612Z,96560.06
2023-06-18T13:14:44.495Z,96563.09
2023-06-18T13:16:47.742Z,96563.09
2023-06-18T13:18:50.388Z,96559.25
2023-06-18T13:20:55.161Z,96560.84
2023-06-18T13:22:58.487Z,96566.28
2023-06-18T13:25:01.408Z,96554.31
2023-06-18T13:27:06.533Z,96545.03
2023-06-18T13:29:10.449Z,96534.97
2023-06-18T13:31:13.269Z,96532.75
2023-06-18T13:33:16.112Z,96530.03
2023-06-18T13:35:19.411Z,96530.84
2023-06-18T13:37:22.289Z,96527.31
2023-06-18T13:39:25.828Z,96540.09
2023-06-18T13:41:28.695Z,96539.31
2023-06-18T13:43:32.906Z,96544.75
2023-06-18T13:45:35.884Z,96543.94
2023-06-18T13:47:38.884Z,96549.38
2023-06-18T13:49:42.043Z,96543.94
2023-06-18T13:51:44.985Z,96537.69
2023-06-18T13:53:47.870Z,96531.16
2023-06-18T13:55:51.164Z,96531.66
2023-06-18T13:57:56.972Z,96528.34
2023-06-18T14:00:01.283Z,96534.25
2023-06-18T14:02:04.506Z,96532.81
2023-06-18T14:04:08.858Z,96528.50
2023-06-18T14:06:11.925Z,96521.47
2023-06-18T14:08:14.827Z,96533.94
2023-06-18T14:10:17.812Z,96536.34
2023-06-18T14:12:23.877Z,96543.69
2023-06-18T14:14:27.022Z,96535.84
2023-06-18T14:16:31.863Z,96540.47
2023-06-18T14:18:35.390Z,96535.06
2023-06-18T14:20:38.460Z,96539.84
2023-06-18T14:22:41.557Z,96539.84
2023-06-18T14:24:44.552Z,96539.84
2023-06-18T14:26:47.443Z,96537.44
2023-06-18T14:28:50.192Z,96526.59
2023-06-18T14:30:53.307Z,96533.63
2023-06-18T14:32:57.512Z,96523.88
2023-06-18T14:35:00.337Z,96532.34
2023-06-18T14:37:03.241Z,96531.22
2023-06-18T14:39:06.671Z,96529.63
2023-06-18T14:41:09.648Z,96525.78
2023-06-18T14:43:12.524Z,96533.94
2023-06-18T14:45:15.720Z,96522.75
2023-06-18T14:47:18.552Z,96518.94
2023-06-18T14:49:23.102Z,96524.03
2023-06-18T14:51:26.279Z,96529.16
2023-06-18T14:53:29.161Z,96519.13
2023-06-18T14:55:33.888Z,96523.44
2023-06-18T14:57:36.686Z,96513.69
2023-06-18T14:59:41.202Z,96515.28
2023-06-18T15:01:44.423Z,96518.50
2023-06-18T15:03:47.642Z,96504.59
2023-06-18T15:05:52.004Z,96504.59
2023-06-18T15:07:55.069Z,96503.81
2023-06-18T15:09:57.979Z,96505.41
2023-06-18T15:12:00.995Z,96508.13
2023-06-18T15:14:04.180Z,96503.16
2023-06-18T15:16:07.123Z,96500.13
2023-06-18T15:18:09.904Z,96501.75
2023-06-18T15:20:14.987Z,96494.22
2023-06-18T15:22:19.575Z,96500.94
2023-06-18T15:24:22.391Z,96500.94
2023-06-18T15:26:27.684Z,96504.47
2023-06-18T15:28:30.535Z,96502.53
2023-06-18T15:30:33.469Z,96505.25
2023-06-18T15:32:36.382Z,96502.53
2023-06-18T15:34:39.806Z,96495.50
2023-06-18T15:36:42.595Z,96497.09
2023-06-18T15:38:49.910Z,96497.09
2023-06-18T15:40:53.893Z,96491.19
2023-06-18T15:42:58.037Z,96486.88
2023-06-18T15:45:01.039Z,96485.59
2023-06-18T15:47:03.871Z,96477.44
2023-06-18T15:49:06.697Z,96483.66
2023-06-18T15:51:10.315Z,96477.44
2023-06-18T15:53:13.304Z,96489.09
2023-06-18T15:55:17.518Z,96484.78
2023-06-18T15:57:20.231Z,96492.13
2023-06-18T15:59:23.082Z,96495.97
2023-06-18T16:01:25.891Z,96490.84
2023-06-18T16:03:28.782Z,96487.34
2023-06-18T16:05:31.848Z,96476.47
2023-06-18T16:07:34.715Z,96479.19
2023-06-18T16:09:37.921Z,96469.13
2023-06-18T16:11:42.104Z,96466.88
2023-06-18T16:13:44.963Z,96465.78
2023-06-18T16:15:50.263Z,96450.28
2023-06-18T16:17:53.401Z,96456.50
2023-06-18T16:19:56.379Z,96453.47
2023-06-18T16:21:59.189Z,96447.25
2023-06-18T16:24:03.344Z,96453.97
2023-06-18T16:26:06.268Z,96450.44
2023-06-18T16:28:10.510Z,96452.66
2023-06-18T16:30:14.416Z,96457.31
2023-06-18T16:32:17.294Z,96465.13
2023-06-18T16:34:20.086Z,96466.75
2023-06-18T16:36:23.289Z,96463.22
2023-06-18T16:38:26.115Z,96457.47
2023-06-18T16:40:30.063Z,96456.69
2023-06-18T16:42:34.074Z,96452.56
2023-06-18T16:44:38.224Z,96450.91
2023-06-18T16:46:41.103Z,96450.63
2023-06-18T16:48:43.942Z,96449.84
2023-06-18T16:50:48.995Z,96459.59
2023-06-18T16:52:51.772Z,96453.03
2023-06-18T16:54:54.549Z,96456.22
2023-06-18T16:56:57.456Z,96461.66
2023-06-18T16:59:00.285Z,96458.47
2023-06-18T17:01:04.571Z,96463.09
2023-06-18T17:03:08.346Z,96467.53
2023-06-18T17:05:11.341Z,96467.84
2023-06-18T17:07:15.938Z,96464.34
2023-06-18T17:09:18.915Z,96462.25
2023-06-18T17:11:22.270Z,96463.06
2023-06-18T17:13:25.176Z,96457.94
2023-06-18T17:15:28.205Z,96462.56
2023-06-18T17:17:33.338Z,96463.38
2023-06-18T17:19:37.561Z,96468.00
2023-06-18T17:21:40.544Z,96447.88
2023-06-18T17:23:43.297Z,96452.50
2023-06-18T17:25:46.189Z,96463.38
2023-06-18T17:27:49.485Z,96460.97
2023-06-18T17:29:52.238Z,96455.53
2023-06-18T17:31:55.087Z,96465.59
2023-06-18T17:33:59.282Z,96464.81
2023-06-18T17:36:07.262Z,96475.66
2023-06-18T17:38:10.205Z,96474.03
2023-06-18T17:40:14.182Z,96475.94
2023-06-18T17:42:18.066Z,96474.34
2023-06-18T17:44:20.957Z,96470.53
2023-06-18T17:46:23.793Z,96466.22
2023-06-18T17:48:26.968Z,96471.31
2023-06-18T17:50:31.482Z,96465.88
2023-06-18T17:52:34.447Z,96481.09
2023-06-18T17:54:37.201Z,96474.03
2023-06-18T17:56:40.001Z,96484.09
2023-06-18T17:58:42.895Z,96475.66
2023-06-18T18:00:45.463Z,96473.75
2023-06-18T18:02:50.895Z,96467.53
2023-06-18T18:04:53.962Z,96467.53
2023-06-18T18:07:01.537Z,96470.25
2023-06-18T18:09:04.709Z,96460.97
2023-06-18T18:11:07.620Z,96458.25
2023-06-18T18:13:10.403Z,96464.16
2023-06-18T18:15:13.345Z,96461.47
2023-06-18T18:17:16.364Z,96467.69
2023-06-18T18:19:19.222Z,96468.50
2023-06-18T18:21:22.311Z,96464.66
2023-06-18T18:23:26.717Z,96460.50
2023-06-18T18:25:29.759Z,96464.50
2023-06-18T18:27:32.653Z,96458.78
2023-06-18T18:29:35.766Z,96471.25
2023-06-18T18:31:38.657Z,96476.38
2023-06-18T18:33:41.397Z,96475.25
2023-06-18T18:35:44.247Z,96486.59
2023-06-18T18:37:47.443Z,96479.56
2023-06-18T18:39:51.577Z,96483.09
2023-06-18T18:41:54.731Z,96479.88
2023-06-18T18:43:57.688Z,96483.41
2023-06-18T18:46:00.548Z,96477.50
2023-06-18T18:48:03.577Z,96478.59
2023-06-18T18:50:07.547Z,96479.72
2023-06-18T18:52:10.537Z,96485.16
2023-06-18T18:54:16.270Z,96480.81
2023-06-18T18:56:20.466Z,96484.63
2023-06-18T18:58:23.435Z,96488.16
2023-06-18T19:00:26.509Z,96492.78
2023-06-18T19:02:29.672Z,96492.31
2023-06-18T19:04:32.662Z,96483.66
2023-06-18T19:06:35.996Z,96488.31
2023-06-18T19:08:39.529Z,96486.69
2023-06-18T19:10:42.339Z,96497.56
2023-06-18T19:12:52.729Z,96496.28
2023-06-18T19:14:56.427Z,96499.00
2023-06-18T19:16:59.569Z,96503.63
2023-06-18T19:19:02.498Z,96509.34
2023-06-18T19:21:05.557Z,96512.06
2023-06-18T19:23:08.340Z,96515.91
2023-06-18T19:25:11.964Z,96515.91
2023-06-18T19:27:15.165Z,96518.94
2023-06-18T19:29:19.969Z,96528.50
2023-06-18T19:31:23.326Z,96528.50
2023-06-18T19:33:27.230Z,96519.06
2023-06-18T19:35:31.578Z,96520.50
2023-06-18T19:37:34.668Z,96531.34
2023-06-18T19:39:37.758Z,96532.44
2023-06-18T19:41:41.168Z,96531.66
2023-06-18T19:43:44.065Z,96530.03
2023-06-18T19:45:48.926Z,96524.63
2023-06-18T19:47:51.897Z,96515.19
2023-06-18T19:49:54.865Z,96515.19
2023-06-18T19:51:57.684Z,96529.06
2023-06-18T19:54:00.874Z,96529.88
2023-06-18T19:56:07.025Z,96533.69
2023-06-18T19:58:11.161Z,96537.22
2023-06-18T20:00:15.221Z,96523.94
2023-06-18T20:02:20.003Z,96526.66
2023-06-18T20:04:24.034Z,96532.09
2023-06-18T20:06:28.239Z,96529.69
2023-06-18T20:08:32.990Z,96543.56
2023-06-18T20:10:36.084Z,96534.88
2023-06-18T20:12:39.382Z,96547.91
2023-06-18T20:14:42.927Z,96548.97
2023-06-18T20:16:45.755Z,96550.63
2023-06-18T20:18:51.203Z,96554.41
2023-06-18T20:20:55.730Z,96554.41
2023-06-18T20:22:58.932Z,96554.41
2023-06-18T20:25:01.862Z,96557.13
2023-06-18T20:27:05.888Z,96554.41
2023-06-18T20:29:09.206Z,96560.94
2023-06-18T20:31:13.136Z,96559.03
2023-06-18T20:33:15.967Z,96562.84
2023-06-18T20:35:20.759Z,96562.84
2023-06-18T20:37:27.124Z,96567.47
2023-06-18T20:39:31.361Z,96563.97
